sensor_id;sensor_type;location;lat;lon;timestamp;pressure;altitude;pressure_sealevel;temperature;humidity
64064;BME280;50314;50.618;10.642;2023-07-22T00:01:22;96524.84;;;19.68;27.44
64064;BME280;50314;50.618;10.642;2023-07-22T00:03:47;96520.50;;;19.67;27.38
64064;BME280;50314;50.618;10.642;2023-07-22T00:06:13;96516.19;;;19.66;27.31
64064;BME280;50314;50.618;10.642;2023-07-22T00:08:39;96515.38;;;19.65;27.47
64064;BME280;50314;50.618;10.642;2023-07-22T00:11:05;96519.03;;;19.64;27.29
64064;BME280;50314;50.618;10.642;2023-07-22T00:13:31;96516.69;;;19.61;27.41
64064;BME280;50314;50.618;10.642;2023-07-22T00:15:57;96515.03;;;19.60;27.52
64064;BME280;50314;50.618;10.642;2023-07-22T00:18:25;96526.75;;;19.59;27.36
64064;BME280;50314;50.618;10.642;2023-07-22T00:20:52;96521.56;;;19.58;27.20
64064;BME280;50314;50.618;10.642;2023-07-22T00:23:18;96533.25;;;19.57;27.55
64064;BME280;50314;50.618;10.642;2023-07-22T00:25:45;96525.41;;;19.55;27.52
64064;BME280;50314;50.618;10.642;2023-07-22T00:28:11;96529.09;;;19.54;27.10
64064;BME280;50314;50.618;10.642;2023-07-22T00:30:36;96523.94;;;19.53;27.27
64064;BME280;50314;50.618;10.642;2023-07-22T00:33:02;96533.13;;;19.50;27.53
64064;BME280;50314;50.618;10.642;2023-07-22T00:35:27;96530.44;;;19.50;27.23
64064;BME280;50314;50.618;10.642;2023-07-22T00:37:53;96528.94;;;19.47;27.21
64064;BME280;50314;50.618;10.642;2023-07-22T00:40:18;96528.13;;;19.47;27.32
64064;BME280;50314;50.618;10.642;2023-07-22T00:42:44;96529.28;;;19.44;26.98
64064;BME280;50314;50.618;10.642;2023-07-22T00:45:10;96529.28;;;19.44;27.37
64064;BME280;50314;50.618;10.642;2023-07-22T00:47:36;96531.31;;;19.42;27.20
64064;BME280;50314;50.618;10.642;2023-07-22T00:50:03;96525.31;;;19.40;27.13
64064;BME280;50314;50.618;10.642;2023-07-22T00:52:29;96526.31;;;19.39;26.92
64064;BME280;50314;50.618;10.642;2023-07-22T00:54:55;96529.13;;;19.38;27.14
64064;BME280;50314;50.618;10.642;2023-07-22T00:57:21;96528.47;;;19.36;27.00
64064;BME280;50314;50.618;10.642;2023-07-22T00:59:47;96528.63;;;19.34;27.03
64064;BME280;50314;50.618;10.642;2023-07-22T01:02:13;96524.50;;;19.32;26.96
64064;BME280;50314;50.618;10.642;2023-07-22T01:04:38;96525.31;;;19.32;26.94
64064;BME280;50314;50.618;10.642;2023-07-22T01:07:05;96526.50;;;19.30;27.07
64064;BME280;50314;50.618;10.642;2023-07-22T01:09:37;96523.81;;;19.30;27.15
64064;BME280;50314;50.618;10.642;2023-07-22T01:12:04;96521.50;;;19.27;27.36
64064;BME280;50314;50.618;10.642;2023-07-22T01:14:33;96528.69;;;19.26;27.24
64064;BME280;50314;50.618;10.642;2023-07-22T01:17:01;96528.84;;;19.24;27.43
64064;BME280;50314;50.618;10.642;2023-07-22T01:19:27;96520.19;;;19.22;27.19
64064;BME280;50314;50.618;10.642;2023-07-22T01:21:54;96519.50;;;19.20;27.44
64064;BME280;50314;50.618;10.642;2023-07-22T01:24:21;96525.03;;;19.19;27.05
64064;BME280;50314;50.618;10.642;2023-07-22T01:26:47;96527.03;;;19.17;27.20
64064;BME280;50314;50.618;10.642;2023-07-22T01:29:13;96529.69;;;19.17;27.21
64064;BME280;50314;50.618;10.642;2023-07-22T01:31:38;96519.84;;;19.17;27.49
64064;BME280;50314;50.618;10.642;2023-07-22T01:34:04;96524.56;;;19.15;27.39
64064;BME280;50314;50.618;10.642;2023-07-22T01:36:30;96524.69;;;19.14;26.94
64064;BME280;50314;50.618;10.642;2023-07-22T01:38:55;96523.88;;;19.13;27.31
64064;BME280;50314;50.618;10.642;2023-07-22T01:41:21;96524.88;;;19.12;27.00
64064;BME280;50314;50.618;10.642;2023-07-22T01:43:46;96534.75;;;19.12;27.22
64064;BME280;50314;50.618;10.642;2023-07-22T01:46:12;96534.06;;;19.10;27.24
64064;BME280;50314;50.618;10.642;2023-07-22T01:48:37;96536.91;;;19.08;27.04
64064;BME280;50314;50.618;10.642;2023-07-22T01:51:03;96530.91;;;19.06;27.34
64064;BME280;50314;50.618;10.642;2023-07-22T01:53:29;96528.25;;;19.06;27.20
64064;BME280;50314;50.618;10.642;2023-07-22T01:55:54;96526.75;;;19.04;27.41
64064;BME280;50314;50.618;10.642;2023-07-22T01:58:20;96532.25;;;19.02;27.23
64064;BME280;50314;50.618;10.642;2023-07-22T02:00:50;96536.91;;;19.00;27.02
64064;BME280;50314;50.618;10.642;2023-07-22T02:03:15;96536.09;;;18.99;27.24
64064;BME280;50314;50.618;10.642;2023-07-22T02:05:41;96536.09;;;18.99;27.35
64064;BME280;50314;50.618;10.642;2023-07-22T02:08:06;96541.44;;;18.99;26.94
64064;BME280;50314;50.618;10.642;2023-07-22T02:10:32;96543.41;;;18.97;27.42
64064;BME280;50314;50.618;10.642;2023-07-22T02:12:57;96546.28;;;18.96;27.50
64064;BME280;50314;50.618;10.642;2023-07-22T02:15:23;96542.94;;;18.94;27.45
64064;BME280;50314;50.618;10.642;2023-07-22T02:17:50;96540.44;;;18.92;27.48
64064;BME280;50314;50.618;10.642;2023-07-22T02:20:15;96547.63;;;18.92;27.41
64064;BME280;50314;50.618;10.642;2023-07-22T02:22:41;96545.94;;;18.91;27.32
64064;BME280;50314;50.618;10.642;2023-07-22T02:25:07;96544.28;;;18.90;27.48
64064;BME280;50314;50.618;10.642;2023-07-22T02:27:32;96553.31;;;18.89;27.05
64064;BME280;50314;50.618;10.642;2023-07-22T02:29:58;96545.63;;;18.86;27.47
64064;BME280;50314;50.618;10.642;2023-07-22T02:32:23;96550.13;;;18.85;27.35
64064;BME280;50314;50.618;10.642;2023-07-22T02:34:49;96546.63;;;18.85;27.36
64064;BME280;50314;50.618;10.642;2023-07-22T02:37:14;96551.31;;;18.83;27.16
64064;BME280;50314;50.618;10.642;2023-07-22T02:39:40;96549.66;;;18.82;27.39
64064;BME280;50314;50.618;10.642;2023-07-22T02:42:05;96555.97;;;18.81;27.02
64064;BME280;50314;50.618;10.642;2023-07-22T02:44:31;96556.16;;;18.79;27.39
64064;BME280;50314;50.618;10.642;2023-07-22T02:46:56;96561.47;;;18.79;27.09
64064;BME280;50314;50.618;10.642;2023-07-22T02:49:22;96561.63;;;18.77;27.08
64064;BME280;50314;50.618;10.642;2023-07-22T02:51:47;96559.16;;;18.76;27.02
64064;BME280;50314;50.618;10.642;2023-07-22T02:54:13;96563.78;;;18.74;26.81
64064;BME280;50314;50.618;10.642;2023-07-22T02:56:39;96562.94;;;18.73;26.71
64064;BME280;50314;50.618;10.642;2023-07-22T02:59:04;96565.78;;;18.72;27.11
64064;BME280;50314;50.618;10.642;2023-07-22T03:01:30;96572.28;;;18.69;27.18
64064;BME280;50314;50.618;10.642;2023-07-22T03:03:56;96574.28;;;18.67;27.12
64064;BME280;50314;50.618;10.642;2023-07-22T03:06:21;96568.13;;;18.67;26.64
64064;BME280;50314;50.618;10.642;2023-07-22T03:08:47;96572.63;;;18.66;27.04
64064;BME280;50314;50.618;10.642;2023-07-22T03:11:13;96571.78;;;18.66;26.63
64064;BME280;50314;50.618;10.642;2023-07-22T03:13:39;96571.97;;;18.64;27.04
64064;BME280;50314;50.618;10.642;2023-07-22T03:16:04;96566.78;;;18.63;26.64
64064;BME280;50314;50.618;10.642;2023-07-22T03:18:30;96578.63;;;18.60;27.01
64064;BME280;50314;50.618;10.642;2023-07-22T03:20:57;96584.97;;;18.59;26.56
64064;BME280;50314;50.618;10.642;2023-07-22T03:23:22;96581.63;;;18.57;26.84
64064;BME280;50314;50.618;10.642;2023-07-22T03:25:48;96577.28;;;18.56;26.46
64064;BME280;50314;50.618;10.642;2023-07-22T03:28:14;96584.66;;;18.54;26.81
64064;BME280;50314;50.618;10.642;2023-07-22T03:30:39;96581.28;;;18.52;26.85
64064;BME280;50314;50.618;10.642;2023-07-22T03:33:05;96580.63;;;18.50;26.74
64064;BME280;50314;50.618;10.642;2023-07-22T03:35:31;96586.13;;;18.48;26.64
64064;BME280;50314;50.618;10.642;2023-07-22T03:37:58;96578.28;;;18.47;26.48
64064;BME280;50314;50.618;10.642;2023-07-22T03:40:23;96574.97;;;18.45;26.73
64064;BME280;50314;50.618;10.642;2023-07-22T03:42:55;96578.59;;;18.44;26.31
64064;BME280;50314;50.618;10.642;2023-07-22T03:45:21;96589.47;;;18.42;26.44
64064;BME280;50314;50.618;10.642;2023-07-22T03:47:51;96587.94;;;18.40;26.62
64064;BME280;50314;50.618;10.642;2023-07-22T03:50:18;96580.94;;;18.39;26.33
64064;BME280;50314;50.618;10.642;2023-07-22T03:52:43;96583.81;;;18.37;26.31
64064;BME280;50314;50.618;10.642;2023-07-22T03:55:09;96580.44;;;18.35;26.39
64064;BME280;50314;50.618;10.642;2023-07-22T03:57:34;96584.13;;;18.34;26.62
64064;BME280;50314;50.618;10.642;2023-07-22T04:00:00;96584.13;;;18.34;26.57
64064;BME280;50314;50.618;10.642;2023-07-22T04:02:26;96586.94;;;18.33;26.62
64064;BME280;50314;50.618;10.642;2023-07-22T04:04:53;96587.13;;;18.31;26.56
64064;BME280;50314;50.618;10.642;2023-07-22T04:07:19;96584.59;;;18.29;26.36
64064;BME280;50314;50.618;10.642;2023-07-22T04:09:45;96587.28;;;18.29;26.58
64064;BME280;50314;50.618;10.642;2023-07-22T04:12:10;96579.44;;;18.28;26.58
64064;BME280;50314;50.618;10.642;2023-07-22T04:14:36;96581.44;;;18.26;26.28
64064;BME280;50314;50.618;10.642;2023-07-22T04:17:02;96576.09;;;18.26;26.59
64064;BME280;50314;50.618;10.642;2023-07-22T04:19:29;96585.94;;;18.25;26.68
64064;BME280;50314;50.618;10.642;2023-07-22T04:21:55;96582.59;;;18.23;26.38
64064;BME280;50314;50.618;10.642;2023-07-22T04:24:20;96592.44;;;18.23;26.68
64064;BME280;50314;50.618;10.642;2023-07-22T04:26:46;96593.25;;;18.23;26.68
64064;BME280;50314;50.618;10.642;2023-07-22T04:29:11;96596.91;;;18.22;26.60
64064;BME280;50314;50.618;10.642;2023-07-22T04:31:38;96591.59;;;18.22;26.85
64064;BME280;50314;50.618;10.642;2023-07-22T04:34:03;96599.78;;;18.21;26.42
64064;BME280;50314;50.618;10.642;2023-07-22T04:36:30;96598.94;;;18.20;26.58
64064;BME280;50314;50.618;10.642;2023-07-22T04:38:56;96605.09;;;18.21;26.66
64064;BME280;50314;50.618;10.642;2023-07-22T04:41:21;96605.94;;;18.21;26.62
64064;BME280;50314;50.618;10.642;2023-07-22T04:43:47;96610.44;;;18.21;26.76
64064;BME280;50314;50.618;10.642;2023-07-22T04:46:13;96611.25;;;18.21;27.00
64064;BME280;50314;50.618;10.642;2023-07-22T04:48:38;96614.56;;;18.23;26.98
64064;BME280;50314;50.618;10.642;2023-07-22T04:51:04;96602.25;;;18.22;27.08
64064;BME280;50314;50.618;10.642;2023-07-22T04:53:29;96603.91;;;18.23;26.70
64064;BME280;50314;50.618;10.642;2023-07-22T04:55:55;96606.56;;;18.23;26.91
64064;BME280;50314;50.618;10.642;2023-07-22T04:58:21;96609.25;;;18.23;26.97
64064;BME280;50314;50.618;10.642;2023-07-22T05:00:46;96605.59;;;18.24;26.82
64064;BME280;50314;50.618;10.642;2023-07-22T05:03:12;96608.91;;;18.26;26.79
64064;BME280;50314;50.618;10.642;2023-07-22T05:05:38;96602.63;;;18.27;27.17
64064;BME280;50314;50.618;10.642;2023-07-22T05:08:04;96604.28;;;18.28;26.80
64064;BME280;50314;50.618;10.642;2023-07-22T05:10:29;96611.25;;;18.29;26.95
64064;BME280;50314;50.618;10.642;2023-07-22T05:12:55;96611.94;;;18.31;27.11
64064;BME280;50314;50.618;10.642;2023-07-22T05:15:22;96608.28;;;18.33;27.29
64064;BME280;50314;50.618;10.642;2023-07-22T05:17:47;96610.94;;;18.33;27.41
64064;BME280;50314;50.618;10.642;2023-07-22T05:20:13;96613.28;;;18.36;27.28
64064;BME280;50314;50.618;10.642;2023-07-22T05:22:39;96616.63;;;18.38;26.98
64064;BME280;50314;50.618;10.642;2023-07-22T05:27:40;96616.31;;;18.41;27.20
64064;BME280;50314;50.618;10.642;2023-07-22T05:30:06;96615.09;;;18.43;27.00
64064;BME280;50314;50.618;10.642;2023-07-22T05:32:31;96613.13;;;18.45;27.56
64064;BME280;50314;50.618;10.642;2023-07-22T05:34:57;96611.97;;;18.48;27.57
64064;BME280;50314;50.618;10.642;2023-07-22T05:37:25;96613.63;;;18.49;27.25
64064;BME280;50314;50.618;10.642;2023-07-22T05:39:51;96614.13;;;18.52;27.60
64064;BME280;50314;50.618;10.642;2023-07-22T05:42:17;96613.81;;;18.55;27.38
64064;BME280;50314;50.618;10.642;2023-07-22T05:44:43;96612.66;;;18.58;27.39
64064;BME280;50314;50.618;10.642;2023-07-22T05:47:09;96612.31;;;18.61;27.41
64064;BME280;50314;50.618;10.642;2023-07-22T05:49:35;96614.66;;;18.64;27.76
64064;BME280;50314;50.618;10.642;2023-07-22T05:52:00;96617.81;;;18.68;27.48
64064;BME280;50314;50.618;10.642;2023-07-22T05:54:26;96613.81;;;18.72;27.54
64064;BME280;50314;50.618;10.642;2023-07-22T05:56:51;96614.31;;;18.75;27.74
64064;BME280;50314;50.618;10.642;2023-07-22T05:59:17;96619.16;;;18.80;27.93
64064;BME280;50314;50.618;10.642;2023-07-22T06:01:42;96618.69;;;18.85;27.82
64064;BME280;50314;50.618;10.642;2023-07-22T06:04:08;96615.50;;;18.89;27.60
64064;BME280;50314;50.618;10.642;2023-07-22T06:06:35;96623.00;;;18.94;27.89
64064;BME280;50314;50.618;10.642;2023-07-22T06:09:00;96630.34;;;18.92;28.45
64064;BME280;50314;50.618;10.642;2023-07-22T06:11:26;96618.31;;;19.04;28.17
64064;BME280;50314;50.618;10.642;2023-07-22T06:13:51;96632.00;;;19.09;27.68
64064;BME280;50314;50.618;10.642;2023-07-22T06:16:17;96630.66;;;19.13;27.92
64064;BME280;50314;50.618;10.642;2023-07-22T06:18:43;96625.66;;;19.18;27.88
64064;BME280;50314;50.618;10.642;2023-07-22T06:21:08;96628.63;;;19.23;27.67
64064;BME280;50314;50.618;10.642;2023-07-22T06:23:34;96631.63;;;19.29;28.00
64064;BME280;50314;50.618;10.642;2023-07-22T06:25:59;96633.59;;;19.35;27.99
64064;BME280;50314;50.618;10.642;2023-07-22T06:28:25;96637.66;;;19.39;28.00
64064;BME280;50314;50.618;10.642;2023-07-22T06:30:50;96639.81;;;19.43;27.99
64064;BME280;50314;50.618;10.642;2023-07-22T06:33:16;96637.47;;;19.48;27.65
64064;BME280;50314;50.618;10.642;2023-07-22T06:35:41;96644.97;;;19.53;27.61
64064;BME280;50314;50.618;10.642;2023-07-22T06:38:07;96643.59;;;19.57;27.74
64064;BME280;50314;50.618;10.642;2023-07-22T06:40:33;96642.09;;;19.63;27.59
64064;BME280;50314;50.618;10.642;2023-07-22T06:42:58;96644.09;;;19.69;27.30
64064;BME280;50314;50.618;10.642;2023-07-22T06:45:24;96647.72;;;19.76;27.69
64064;BME280;50314;50.618;10.642;2023-07-22T06:47:52;96645.19;;;19.83;27.65
64064;BME280;50314;50.618;10.642;2023-07-22T06:50:17;96651.50;;;19.90;27.68
64064;BME280;50314;50.618;10.642;2023-07-22T06:52:43;96655.97;;;19.98;27.12
64064;BME280;50314;50.618;10.642;2023-07-22T06:55:08;96651.47;;;20.06;27.15
64064;BME280;50314;50.618;10.642;2023-07-22T06:57:34;96649.56;;;20.15;26.94
64064;BME280;50314;50.618;10.642;2023-07-22T07:00:00;96651.38;;;20.23;27.01
64064;BME280;50314;50.618;10.642;2023-07-22T07:02:26;96649.69;;;20.30;26.98
64064;BME280;50314;50.618;10.642;2023-07-22T07:04:51;96658.66;;;20.37;26.77
64064;BME280;50314;50.618;10.642;2023-07-22T07:07:17;96656.13;;;20.44;26.92
64064;BME280;50314;50.618;10.642;2023-07-22T07:09:43;96654.56;;;20.49;27.14
64064;BME280;50314;50.618;10.642;2023-07-22T07:12:21;96653.03;;;20.55;27.01
64064;BME280;50314;50.618;10.642;2023-07-22T07:14:50;96661.69;;;20.65;26.94
64064;BME280;50314;50.618;10.642;2023-07-22T07:17:15;96667.63;;;20.75;27.00
64064;BME280;50314;50.618;10.642;2023-07-22T07:19:41;96669.41;;;20.83;26.88
64064;BME280;50314;50.618;10.642;2023-07-22T07:22:07;96670.00;;;20.93;27.05
64064;BME280;50314;50.618;10.642;2023-07-22T07:24:32;96664.59;;;21.01;26.86
64064;BME280;50314;50.618;10.642;2023-07-22T07:26:58;96665.34;;;21.10;26.91
64064;BME280;50314;50.618;10.642;2023-07-22T07:29:23;96674.16;;;21.19;26.33
64064;BME280;50314;50.618;10.642;2023-07-22T07:31:49;96677.63;;;21.27;26.09
64064;BME280;50314;50.618;10.642;2023-07-22T07:34:14;96674.84;;;21.35;25.98
64064;BME280;50314;50.618;10.642;2023-07-22T07:36:40;96672.06;;;21.44;25.90
64064;BME280;50314;50.618;10.642;2023-07-22T07:39:06;96677.19;;;21.53;26.14
64064;BME280;50314;50.618;10.642;2023-07-22T07:41:33;96673.19;;;21.64;26.02
64064;BME280;50314;50.618;10.642;2023-07-22T07:43:58;96673.75;;;21.74;26.35
64064;BME280;50314;50.618;10.642;2023-07-22T07:46:28;96672.69;;;21.84;25.88
64064;BME280;50314;50.618;10.642;2023-07-22T07:48:59;96675.75;;;21.95;25.80
64064;BME280;50314;50.618;10.642;2023-07-22T07:51:29;96674.25;;;22.08;25.86
64064;BME280;50314;50.618;10.642;2023-07-22T07:53:56;96677.66;;;22.16;26.02
64064;BME280;50314;50.618;10.642;2023-07-22T07:56:22;96672.63;;;22.28;26.42
64064;BME280;50314;50.618;10.642;2023-07-22T07:58:49;96668.84;;;22.37;25.71
64064;BME280;50314;50.618;10.642;2023-07-22T08:01:16;96671.88;;;22.49;25.60
64064;BME280;50314;50.618;10.642;2023-07-22T08:03:42;96670.47;;;22.53;26.13
64064;BME280;50314;50.618;10.642;2023-07-22T08:06:09;96671.25;;;22.68;25.32
64064;BME280;50314;50.618;10.642;2023-07-22T08:08:35;96673.75;;;22.70;24.96
64064;BME280;50314;50.618;10.642;2023-07-22T08:11:12;96673.06;;;22.83;24.38
64064;BME280;50314;50.618;10.642;2023-07-22T08:13:42;96670.34;;;22.97;24.54
64064;BME280;50314;50.618;10.642;2023-07-22T08:16:10;96675.19;;;23.09;24.72
64064;BME280;50314;50.618;10.642;2023-07-22T08:18:37;96679.00;;;23.21;25.06
64064;BME280;50314;50.618;10.642;2023-07-22T08:21:04;96677.84;;;23.30;24.65
64064;BME280;50314;50.618;10.642;2023-07-22T08:23:31;96676.66;;;23.39;23.46
64064;BME280;50314;50.618;10.642;2023-07-22T08:25:57;96677.81;;;23.52;23.93
64064;BME280;50314;50.618;10.642;2023-07-22T08:28:22;96668.63;;;23.67;24.38
64064;BME280;50314;50.618;10.642;2023-07-22T08:30:48;96670.31;;;23.75;24.23
64064;BME280;50314;50.618;10.642;2023-07-22T08:33:15;96675.09;;;23.80;23.55
64064;BME280;50314;50.618;10.642;2023-07-22T08:35:41;96677.59;;;23.81;23.24
64064;BME280;50314;50.618;10.642;2023-07-22T08:38:08;96675.09;;;23.80;23.06
64064;BME280;50314;50.618;10.642;2023-07-22T08:40:41;96673.66;;;23.77;22.56
64064;BME280;50314;50.618;10.642;2023-07-22T08:43:09;96670.06;;;23.70;21.60
64064;BME280;50314;50.618;10.642;2023-07-22T08:45:36;96672.53;;;23.65;22.41
64064;BME280;50314;50.618;10.642;2023-07-22T08:48:06;96665.91;;;23.61;21.94
64064;BME280;50314;50.618;10.642;2023-07-22T08:50:52;96665.03;;;23.54;21.59
64064;BME280;50314;50.618;10.642;2023-07-22T08:53:18;96669.75;;;23.52;21.70
64064;BME280;50314;50.618;10.642;2023-07-22T08:55:49;96683.34;;;23.43;21.41
64064;BME280;50314;50.618;10.642;2023-07-22T08:58:15;96671.50;;;23.38;21.45
64064;BME280;50314;50.618;10.642;2023-07-22T09:00:42;96667.09;;;23.30;21.45
64064;BME280;50314;50.618;10.642;2023-07-22T09:03:08;96669.53;;;23.25;21.19
64064;BME280;50314;50.618;10.642;2023-07-22T09:05:35;96662.25;;;23.19;21.12
64064;BME280;50314;50.618;10.642;2023-07-22T09:08:03;96666.34;;;23.15;20.88
64064;BME280;50314;50.618;10.642;2023-07-22T09:10:29;96663.66;;;23.15;21.29
64064;BME280;50314;50.618;10.642;2023-07-22T09:12:56;96654.56;;;23.16;21.43
64064;BME280;50314;50.618;10.642;2023-07-22T09:15:22;96654.56;;;23.16;21.11
64064;BME280;50314;50.618;10.642;2023-07-22T09:17:49;96659.75;;;23.17;21.47
64064;BME280;50314;50.618;10.642;2023-07-22T09:20:15;96653.94;;;23.14;21.11
64064;BME280;50314;50.618;10.642;2023-07-22T09:22:49;96659.06;;;23.09;21.70
64064;BME280;50314;50.618;10.642;2023-07-22T09:27:48;96652.22;;;23.06;21.30
64064;BME280;50314;50.618;10.642;2023-07-22T09:30:34;96661.63;;;22.95;20.95
64064;BME280;50314;50.618;10.642;2023-07-22T09:33:02;96655.44;;;22.95;21.48
64064;BME280;50314;50.618;10.642;2023-07-22T09:35:30;96650.81;;;22.89;21.69
64064;BME280;50314;50.618;10.642;2023-07-22T09:37:56;96655.09;;;22.83;21.03
64064;BME280;50314;50.618;10.642;2023-07-22T09:40:26;96646.78;;;22.78;21.00
64064;BME280;50314;50.618;10.642;2023-07-22T09:42:54;96644.28;;;22.77;21.34
64064;BME280;50314;50.618;10.642;2023-07-22T09:45:24;96634.94;;;22.72;21.54
64064;BME280;50314;50.618;10.642;2023-07-22T09:47:52;96645.69;;;22.72;21.13
64064;BME280;50314;50.618;10.642;2023-07-22T09:50:20;96635.34;;;22.69;21.16
64064;BME280;50314;50.618;10.642;2023-07-22T09:52:53;96639.41;;;22.65;21.47
64064;BME280;50314;50.618;10.642;2023-07-22T09:55:21;96636.13;;;22.63;21.77
64064;BME280;50314;50.618;10.642;2023-07-22T09:57:53;96632.31;;;22.58;22.10
64064;BME280;50314;50.618;10.642;2023-07-22T10:00:20;96638.72;;;22.57;22.25
64064;BME280;50314;50.618;10.642;2023-07-22T10:02:46;96636.81;;;22.50;22.26
64064;BME280;50314;50.618;10.642;2023-07-22T10:05:16;96632.53;;;22.56;21.69
64064;BME280;50314;50.618;10.642;2023-07-22T10:07:47;96629.41;;;22.52;21.62
64064;BME280;50314;50.618;10.642;2023-07-22T10:10:16;96626.72;;;22.52;21.89
64064;BME280;50314;50.618;10.642;2023-07-22T10:12:42;96627.94;;;22.50;21.98
64064;BME280;50314;50.618;10.642;2023-07-22T10:15:09;96621.22;;;22.39;21.94
64064;BME280;50314;50.618;10.642;2023-07-22T10:17:35;96619.81;;;22.43;21.54
64064;BME280;50314;50.618;10.642;2023-07-22T10:20:02;96624.72;;;22.40;21.78
64064;BME280;50314;50.618;10.642;2023-07-22T10:22:34;96622.41;;;22.37;21.37
64064;BME280;50314;50.618;10.642;2023-07-22T10:25:02;96619.09;;;22.35;21.23
64064;BME280;50314;50.618;10.642;2023-07-22T10:27:30;96623.00;;;22.32;20.88
64064;BME280;50314;50.618;10.642;2023-07-22T10:29:56;96628.72;;;22.29;21.14
64064;BME280;50314;50.618;10.642;2023-07-22T10:32:22;96628.25;;;22.25;20.78
64064;BME280;50314;50.618;10.642;2023-07-22T10:34:47;96621.78;;;22.20;21.29
64064;BME280;50314;50.618;10.642;2023-07-22T10:37:13;96631.88;;;22.18;21.40
64064;BME280;50314;50.618;10.642;2023-07-22T10:39:38;96625.88;;;22.16;21.70
64064;BME280;50314;50.618;10.642;2023-07-22T10:42:05;96625.03;;;22.15;21.87
64064;BME280;50314;50.618;10.642;2023-07-22T10:44:38;96615.25;;;22.08;21.37
64064;BME280;50314;50.618;10.642;2023-07-22T10:47:04;96619.19;;;22.12;21.85
64064;BME280;50314;50.618;10.642;2023-07-22T10:49:48;96625.34;;;22.05;22.10
64064;BME280;50314;50.618;10.642;2023-07-22T10:52:14;96623.75;;;22.11;21.72
64064;BME280;50314;50.618;10.642;2023-07-22T10:54:40;96620.06;;;22.12;21.79
64064;BME280;50314;50.618;10.642;2023-07-22T10:59:48;96618.13;;;22.06;22.21
64064;BME280;50314;50.618;10.642;2023-07-22T11:02:24;96608.59;;;22.03;22.22
64064;BME280;50314;50.618;10.642;2023-07-22T11:04:50;96603.88;;;22.05;22.00
64064;BME280;50314;50.618;10.642;2023-07-22T11:07:15;96612.31;;;22.02;22.37
64064;BME280;50314;50.618;10.642;2023-07-22T11:09:54;96608.81;;;22.02;22.63
64064;BME280;50314;50.618;10.642;2023-07-22T11:12:21;96606.28;;;22.00;22.19
64064;BME280;50314;50.618;10.642;2023-07-22T11:15:02;96606.03;;;21.95;22.68
64064;BME280;50314;50.618;10.642;2023-07-22T11:17:30;96606.28;;;22.00;22.35
64064;BME280;50314;50.618;10.642;2023-07-22T11:19:57;96606.66;;;21.97;22.67
64064;BME280;50314;50.618;10.642;2023-07-22T11:22:23;96610.09;;;21.91;22.69
64064;BME280;50314;50.618;10.642;2023-07-22T11:24:48;96601.66;;;21.94;22.91
64064;BME280;50314;50.618;10.642;2023-07-22T11:27:14;96596.31;;;21.94;22.64
64064;BME280;50314;50.618;10.642;2023-07-22T11:29:40;96607.69;;;21.96;22.61
64064;BME280;50314;50.618;10.642;2023-07-22T11:32:06;96600.69;;;21.95;22.60
64064;BME280;50314;50.618;10.642;2023-07-22T11:34:32;96600.22;;;21.92;23.17
64064;BME280;50314;50.618;10.642;2023-07-22T11:36:58;96595.75;;;21.99;22.77
64064;BME280;50314;50.618;10.642;2023-07-22T11:39:27;96599.06;;;22.01;22.78
64064;BME280;50314;50.618;10.642;2023-07-22T11:41:54;96605.09;;;22.03;22.83
64064;BME280;50314;50.618;10.642;2023-07-22T11:44:21;96593.34;;;22.04;22.71
64064;BME280;50314;50.618;10.642;2023-07-22T11:46:58;96599.91;;;22.01;22.47
64064;BME280;50314;50.618;10.642;2023-07-22T11:49:32;96594.38;;;22.03;22.78
64064;BME280;50314;50.618;10.642;2023-07-22T11:52:04;96582.22;;;22.07;22.93
64064;BME280;50314;50.618;10.642;2023-07-22T11:54:31;96582.13;;;22.15;22.63
64064;BME280;50314;50.618;10.642;2023-07-22T11:57:09;96577.59;;;22.16;22.76
64064;BME280;50314;50.618;10.642;2023-07-22T11:59:39;96583.47;;;22.26;22.84
64064;BME280;50314;50.618;10.642;2023-07-22T12:02:05;96573.00;;;22.31;22.57
64064;BME280;50314;50.618;10.642;2023-07-22T12:04:34;96571.00;;;22.33;22.61
64064;BME280;50314;50.618;10.642;2023-07-22T12:07:00;96569.59;;;22.37;22.56
64064;BME280;50314;50.618;10.642;2023-07-22T12:09:26;96565.88;;;22.38;22.88
64064;BME280;50314;50.618;10.642;2023-07-22T12:11:56;96572.72;;;22.41;22.89
64064;BME280;50314;50.618;10.642;2023-07-22T12:14:22;96571.31;;;22.45;22.31
64064;BME280;50314;50.618;10.642;2023-07-22T12:16:55;96568.63;;;22.45;22.75
64064;BME280;50314;50.618;10.642;2023-07-22T12:19:21;96566.22;;;22.50;22.78
64064;BME280;50314;50.618;10.642;2023-07-22T12:21:47;96568.13;;;22.56;22.43
64064;BME280;50314;50.618;10.642;2023-07-22T12:24:14;96573.28;;;22.58;22.23
64064;BME280;50314;50.618;10.642;2023-07-22T12:26:40;96572.06;;;22.60;22.03
64064;BME280;50314;50.618;10.642;2023-07-22T12:29:07;96567.53;;;22.61;21.95
64064;BME280;50314;50.618;10.642;2023-07-22T12:31:33;96568.19;;;22.63;22.54
64064;BME280;50314;50.618;10.642;2023-07-22T12:33:59;96554.75;;;22.63;22.50
64064;BME280;50314;50.618;10.642;2023-07-22T12:36:24;96554.75;;;22.63;22.02
64064;BME280;50314;50.618;10.642;2023-07-22T12:38:50;96545.69;;;22.64;22.40
64064;BME280;50314;50.618;10.642;2023-07-22T12:41:16;96553.53;;;22.65;21.83
64064;BME280;50314;50.618;10.642;2023-07-22T12:43:41;96551.69;;;22.66;21.87
64064;BME280;50314;50.618;10.642;2023-07-22T12:46:07;96543.66;;;22.66;22.09
64064;BME280;50314;50.618;10.642;2023-07-22T12:48:32;96541.97;;;22.65;21.95
64064;BME280;50314;50.618;10.642;2023-07-22T12:50:58;96556.41;;;22.64;21.80
64064;BME280;50314;50.618;10.642;2023-07-22T12:53:24;96545.25;;;22.60;21.80
64064;BME280;50314;50.618;10.642;2023-07-22T12:55:49;96551.63;;;22.59;21.82